createdAt,value
2018-05-01T05:43:21.460Z,2.10
2018-05-01T05:45:48.622Z,4.80
2018-05-01T05:48:16.452Z,0.50
2018-05-01T05:50:43.544Z,0.50
2018-05-01T05:53:11.384Z,0.60
2018-05-01T05:55:38.486Z,0.60
2018-05-01T05:58:06.352Z,0.83
2018-05-01T06:00:33.443Z,2.83
2018-05-01T06:03:00.501Z,0.60
2018-05-01T06:05:27.683Z,0.60
2018-05-01T06:07:54.736Z,0.70
2018-05-01T06:10:21.816Z,3.00
2018-05-01T06:12:49.671Z,0.80
2018-05-01T06:15:16.730Z,0.70
2018-05-01T06:17:43.810Z,1.03
2018-05-01T06:20:10.881Z,0.70
2018-05-01T06:22:38.011Z,0.80
2018-05-01T06:25:05.076Z,1.80
2018-05-01T06:27:32.177Z,0.90
2018-05-01T06:29:59.230Z,0.80
2018-05-01T06:32:26.405Z,9.53
2018-05-01T06:34:54.262Z,0.77
2018-05-01T06:37:21.416Z,1.00
2018-05-01T06:39:49.246Z,2.33
2018-05-01T06:42:16.322Z,1.00
2018-05-01T06:44:43.400Z,1.00
2018-05-01T06:47:10.750Z,1.13
2018-05-01T06:49:37.817Z,1.10
2018-05-01T06:52:04.976Z,1.13
2018-05-01T06:54:32.809Z,1.10
2018-05-01T06:56:59.918Z,3.83
2018-05-01T06:59:27.747Z,1.10
2018-05-01T07:01:54.810Z,1.00
2018-05-01T07:04:21.936Z,1.10
2018-05-01T07:06:49.023Z,1.20
2018-05-01T07:09:16.110Z,1.50
2018-05-01T07:11:43.948Z,1.00
2018-05-01T07:14:11.042Z,2.13
2018-05-01T07:16:38.111Z,1.20
2018-05-01T07:19:05.193Z,0.90
2018-05-01T07:21:32.253Z,1.23
2018-05-01T07:23:59.386Z,1.90
2018-05-01T07:26:26.447Z,1.30
2018-05-01T07:28:53.543Z,2.57
2018-05-01T07:31:20.599Z,1.30
2018-05-01T07:33:48.477Z,1.37
2018-05-01T07:36:15.537Z,1.40
2018-05-01T07:38:43.382Z,1.40
2018-05-01T07:41:10.451Z,1.60
2018-05-01T07:43:38.309Z,2.90
2018-05-01T07:46:05.366Z,1.60
2018-05-01T07:48:53.770Z,2.77
2018-05-01T07:51:20.836Z,1.90
2018-05-01T07:53:47.949Z,1.90
2018-05-01T07:56:15.013Z,1.90
2018-05-01T07:58:42.089Z,2.30
2018-05-01T08:01:09.192Z,2.00
2018-05-01T08:03:37.015Z,2.30
2018-05-01T08:06:04.106Z,2.10
2018-05-01T08:08:31.946Z,2.00
2018-05-01T08:10:59.033Z,2.10
2018-05-01T08:13:26.856Z,2.07
2018-05-01T08:15:53.958Z,1.93
2018-05-01T08:18:21.051Z,2.10
2018-05-01T08:20:48.927Z,1.93
2018-05-01T08:23:15.987Z,2.10
2018-05-01T08:25:43.071Z,1.83
2018-05-01T08:28:10.152Z,1.93
2018-05-01T08:30:37.307Z,1.77
2018-05-01T08:33:04.345Z,2.00
2018-05-01T08:35:32.213Z,2.07
2018-05-01T08:37:59.386Z,1.80
2018-05-01T08:40:27.231Z,1.90
2018-05-01T08:42:55.076Z,1.77
2018-05-01T08:45:22.365Z,1.90
2018-05-01T08:47:49.490Z,1.87
2018-05-01T08:50:16.578Z,1.80
2018-05-01T08:52:44.418Z,2.20
2018-05-01T08:55:11.507Z,6.20
2018-05-01T08:57:39.363Z,1.93
2018-05-01T09:00:06.940Z,1.87
2018-05-01T09:02:34.823Z,1.97
2018-05-01T09:05:02.064Z,2.00
2018-05-01T09:07:30.720Z,1.97
2018-05-01T09:09:57.778Z,2.30
2018-05-01T09:12:24.855Z,1.60
2018-05-01T09:14:51.953Z,1.60
2018-05-01T09:17:19.043Z,1.70
2018-05-01T09:19:46.149Z,2.33
2018-05-01T09:22:13.221Z,1.73
2018-05-01T09:24:40.328Z,1.90
2018-05-01T09:27:07.428Z,3.37
2018-05-01T09:29:34.487Z,1.60
2018-05-01T09:32:01.575Z,1.57
2018-05-01T09:34:28.643Z,2.27
2018-05-01T09:36:55.738Z,1.77
2018-05-01T09:39:22.823Z,1.90
2018-05-01T09:41:49.957Z,1.43
2018-05-01T09:44:17.764Z,2.30
2018-05-01T09:46:44.830Z,2.53
2018-05-01T09:49:11.920Z,2.77
2018-05-01T09:51:38.996Z,2.00
2018-05-01T09:54:06.585Z,2.10
2018-05-01T09:56:34.130Z,2.00
2018-05-01T09:59:01.706Z,1.97
2018-05-01T10:01:29.267Z,1.70
2018-05-01T10:03:56.841Z,1.87
2018-05-01T10:06:24.408Z,1.67
2018-05-01T10:08:51.987Z,3.40
2018-05-01T10:11:19.531Z,2.00
2018-05-01T10:13:47.112Z,2.30
2018-05-01T10:16:14.665Z,2.20
2018-05-01T10:18:42.274Z,6.03
2018-05-01T10:21:09.825Z,2.37
2018-05-01T10:23:37.719Z,2.87
2018-05-01T10:26:05.277Z,1.70
2018-05-01T10:28:32.855Z,3.07
2018-05-01T10:31:00.439Z,3.77
2018-05-01T10:33:27.984Z,3.47
2018-05-01T10:35:55.563Z,1.90
2018-05-01T10:38:23.195Z,1.50
2018-05-01T10:40:50.719Z,2.73
2018-05-01T10:43:18.253Z,4.63
2018-05-01T10:45:45.904Z,2.10
2018-05-01T10:48:13.382Z,2.73
2018-05-01T10:50:40.962Z,1.90
2018-05-01T10:53:08.510Z,3.33
2018-05-01T10:55:36.090Z,1.83
2018-05-01T10:58:03.646Z,3.97
2018-05-01T11:00:31.247Z,3.07
2018-05-01T11:02:58.797Z,1.50
2018-05-01T11:05:26.385Z,2.83
2018-05-01T11:07:53.961Z,1.30
2018-05-01T11:10:22.294Z,2.37
2018-05-01T11:12:49.836Z,2.90
2018-05-01T11:15:17.409Z,1.00
2018-05-01T11:17:44.962Z,1.40
2018-05-01T11:20:12.546Z,1.30
2018-05-01T11:22:40.087Z,1.30
2018-05-01T11:25:07.691Z,1.20
2018-05-01T11:27:35.253Z,1.23
2018-05-01T11:30:02.843Z,1.13
2018-05-01T11:32:30.406Z,1.17
2018-05-01T11:34:57.978Z,2.00
2018-05-01T11:37:25.555Z,2.77
2018-05-01T11:39:53.902Z,1.27
2018-05-01T11:42:21.503Z,1.10
2018-05-01T11:44:49.880Z,1.00
2018-05-01T11:47:17.469Z,1.07
2018-05-01T11:49:45.034Z,9.83
2018-05-01T11:52:12.617Z,1.10
2018-05-01T11:54:40.217Z,2.20
2018-05-01T11:57:07.799Z,1.07
2018-05-01T11:59:36.138Z,1.90
2018-05-01T12:02:03.712Z,3.83
2018-05-01T12:04:31.334Z,1.30
2018-05-01T12:06:59.671Z,2.63
2018-05-01T12:09:27.315Z,7.53
2018-05-01T12:11:54.878Z,1.50
2018-05-01T12:14:22.476Z,1.10
2018-05-01T12:16:50.034Z,2.50
2018-05-01T12:19:17.603Z,2.53
2018-05-01T12:21:45.155Z,3.23
2018-05-01T12:24:12.749Z,1.30
2018-05-01T12:26:40.294Z,5.20
2018-05-01T12:29:07.883Z,1.23
2018-05-01T12:31:35.427Z,1.70
2018-05-01T12:34:03.035Z,1.63
2018-05-01T12:36:31.468Z,1.60
2018-05-01T12:38:58.990Z,1.40
2018-05-01T12:41:26.542Z,7.27
2018-05-01T12:43:54.894Z,3.50
2018-05-01T12:46:22.439Z,1.20
2018-05-01T12:48:50.024Z,1.37
2018-05-01T12:51:17.571Z,7.27
2018-05-01T12:53:45.197Z,1.90
2018-05-01T12:56:13.535Z,2.17
2018-05-01T12:58:41.090Z,1.70
2018-05-01T13:01:08.666Z,1.63
2018-05-01T13:03:36.223Z,23.03
2018-05-01T13:06:03.810Z,1.90
2018-05-01T13:08:32.151Z,2.70
2018-05-01T13:10:59.754Z,5.43
2018-05-01T13:13:27.306Z,2.13
2018-05-01T13:15:54.875Z,2.07
2018-05-01T13:18:22.424Z,3.87
2018-05-01T13:20:50.009Z,2.83
2018-05-01T13:23:17.557Z,1.80
2018-05-01T13:25:45.149Z,3.50
2018-05-01T13:28:13.475Z,2.73
2018-05-01T13:30:41.057Z,4.00
2018-05-01T13:33:08.636Z,2.30
2018-05-01T13:35:36.241Z,2.10
2018-05-01T13:38:04.588Z,2.60
2018-05-01T13:40:32.148Z,1.93
2018-05-01T13:42:59.724Z,3.60
2018-05-01T13:45:27.298Z,1.60
2018-05-01T13:47:55.763Z,2.00
2018-05-01T13:50:23.610Z,2.97
2018-05-01T13:52:51.239Z,1.93
2018-05-01T13:55:19.579Z,2.30
2018-05-01T13:57:47.152Z,2.10
2018-05-01T14:00:14.707Z,1.97
2018-05-01T14:02:42.289Z,1.87
2018-05-01T14:05:09.856Z,1.80
2018-05-01T14:07:37.439Z,2.07
2018-05-01T14:10:05.778Z,2.23
2018-05-01T14:12:33.352Z,1.70
2018-05-01T14:15:00.953Z,2.17
2018-05-01T14:17:29.308Z,2.20
2018-05-01T14:19:56.875Z,4.93
2018-05-01T14:22:24.481Z,2.50
2018-05-01T14:24:52.031Z,2.53
2018-05-01T14:27:19.630Z,2.10
2018-05-01T14:29:47.210Z,2.93
2018-05-01T14:32:14.787Z,2.60
2018-05-01T14:34:42.392Z,2.40
2018-05-01T14:37:10.724Z,2.70
2018-05-01T14:39:38.323Z,2.90
2018-05-01T14:42:05.888Z,3.00
2018-05-01T14:44:33.482Z,4.23
2018-05-01T14:47:01.040Z,2.90
2018-05-01T14:49:29.385Z,2.77
2018-05-01T14:51:56.949Z,2.60
2018-05-01T14:54:24.533Z,3.20
2018-05-01T14:56:52.866Z,3.07
2018-05-01T14:59:20.435Z,3.20
2018-05-01T15:01:47.991Z,3.17
2018-05-01T15:04:16.338Z,3.57
2018-05-01T15:06:44.651Z,4.63
2018-05-01T15:09:12.255Z,5.17
2018-05-01T15:11:39.808Z,4.40
2018-05-01T15:14:08.171Z,6.13
2018-05-01T15:16:35.751Z,7.00
2018-05-01T15:19:03.318Z,4.20
2018-05-01T15:21:30.930Z,6.10
2018-05-01T15:23:59.242Z,7.53
2018-05-01T15:26:26.851Z,2.53
2018-05-01T15:28:54.418Z,2.97
2018-05-01T15:31:22.114Z,2.33
2018-05-01T15:33:49.624Z,7.77
2018-05-01T15:36:17.241Z,4.80
2018-05-01T15:38:45.576Z,6.77
2018-05-01T15:41:13.163Z,6.90
2018-05-01T15:43:40.708Z,10.97
2018-05-01T15:46:08.300Z,8.97
2018-05-01T15:48:35.849Z,7.77
2018-05-01T15:51:03.442Z,8.60
2018-05-01T15:53:31.800Z,12.73
2018-05-01T15:55:59.395Z,12.60
2018-05-01T15:58:27.699Z,8.30
2018-05-01T16:00:55.299Z,11.47
2018-05-01T16:03:22.862Z,7.30
2018-05-01T16:05:50.450Z,8.50
2018-05-01T16:08:18.018Z,14.20
2018-05-01T16:10:45.600Z,11.77
2018-05-01T16:13:13.944Z,13.63
2018-05-01T16:15:41.553Z,11.50
2018-05-01T16:18:09.906Z,12.30
2018-05-01T16:20:37.467Z,10.33
2018-05-01T16:23:05.080Z,9.80
2018-05-01T16:25:32.676Z,10.23
2018-05-01T16:28:00.243Z,8.30
2018-05-01T16:30:27.799Z,11.47
2018-05-01T16:32:55.382Z,5.43
2018-05-01T16:35:22.960Z,8.00
2018-05-01T16:37:50.526Z,8.33
2018-05-01T16:40:18.203Z,9.27
2018-05-01T16:42:45.892Z,5.27
2018-05-01T16:45:13.664Z,11.80
2018-05-01T16:47:41.310Z,9.07
2018-05-01T16:50:09.607Z,5.43
2018-05-01T16:52:37.924Z,9.63
2018-05-01T16:55:05.517Z,10.73
2018-05-01T16:57:33.075Z,11.50
2018-05-01T17:00:00.687Z,10.93
2018-05-01T17:02:29.012Z,6.60
2018-05-01T17:04:57.610Z,8.60
2018-05-01T17:07:25.955Z,12.93
2018-05-01T17:09:53.552Z,4.43
2018-05-01T17:12:21.304Z,11.63
2018-05-01T17:14:48.883Z,7.37
2018-05-01T17:17:16.454Z,6.70
2018-05-01T17:19:44.457Z,10.57
2018-05-01T17:22:12.058Z,9.27
2018-05-01T17:24:40.356Z,11.40
2018-05-01T17:27:07.945Z,9.30
2018-05-01T17:29:36.290Z,7.87
2018-05-01T17:32:03.879Z,9.43
2018-05-01T17:34:31.475Z,10.63
2018-05-01T17:36:59.068Z,9.67
2018-05-01T17:39:27.372Z,7.87
2018-05-01T17:41:54.954Z,8.70
2018-05-01T17:44:22.529Z,14.07
2018-05-01T17:46:50.131Z,6.37
2018-05-01T17:49:18.480Z,10.67
2018-05-01T17:51:46.088Z,12.63
2018-05-01T17:54:14.479Z,10.20
2018-05-01T17:56:42.127Z,9.17
2018-05-01T17:59:09.666Z,7.77
2018-05-01T18:01:37.257Z,6.50
2018-05-01T18:04:04.823Z,4.83
2018-05-01T18:06:32.504Z,9.07
2018-05-01T18:08:59.975Z,9.93
2018-05-01T18:11:27.535Z,13.53
2018-05-01T18:13:56.296Z,11.00
2018-05-01T18:16:23.841Z,8.90
2018-05-01T18:18:51.420Z,14.53
2018-05-01T18:21:18.994Z,10.00
2018-05-01T18:23:46.587Z,5.97
2018-05-01T18:26:14.921Z,13.03
2018-05-01T18:28:42.523Z,7.73
2018-05-01T18:31:10.945Z,9.07
2018-05-01T18:33:38.523Z,9.30
2018-05-01T18:36:06.067Z,6.97
2018-05-01T18:38:33.713Z,5.67
2018-05-01T18:41:01.192Z,10.77
2018-05-01T18:43:28.768Z,9.07
2018-05-01T18:45:56.317Z,12.67
2018-05-01T18:48:23.940Z,10.53
2018-05-01T18:50:51.515Z,11.13
2018-05-01T18:53:19.877Z,9.10
2018-05-01T18:55:47.435Z,8.23
2018-05-01T18:58:15.011Z,4.63
2018-05-01T19:00:42.591Z,9.93
2018-05-01T19:03:10.162Z,8.23
2018-05-01T19:05:37.743Z,10.40
2018-05-01T19:08:06.054Z,6.27
2018-05-01T19:10:33.680Z,14.70
2018-05-01T19:13:01.212Z,6.20
2018-05-01T19:15:28.809Z,12.57
2018-05-01T19:17:56.383Z,11.57
2018-05-01T19:20:24.723Z,12.60
2018-05-01T19:22:52.270Z,11.47
2018-05-01T19:25:19.854Z,7.60
2018-05-01T19:27:47.391Z,6.63
2018-05-01T19:30:14.963Z,7.63
2018-05-01T19:32:42.524Z,10.20
2018-05-01T19:35:10.124Z,10.63
2018-05-01T19:37:37.720Z,7.70
2018-05-01T19:40:05.372Z,7.10
2018-05-01T19:42:33.683Z,9.00
2018-05-01T19:45:01.362Z,4.50
2018-05-01T19:47:28.911Z,6.47
2018-05-01T19:49:56.482Z,8.13
2018-05-01T19:52:24.046Z,4.07
2018-05-01T19:54:51.612Z,10.40
2018-05-01T19:57:19.199Z,5.67
2018-05-01T19:59:46.785Z,8.50
2018-05-01T20:02:14.366Z,4.73
2018-05-01T20:04:41.918Z,8.20
2018-05-01T20:07:09.503Z,16.00
2018-05-01T20:09:37.058Z,9.23
2018-05-01T20:12:04.635Z,5.37
2018-05-01T20:14:32.952Z,7.03
2018-05-01T20:17:00.535Z,8.03
2018-05-01T20:19:28.120Z,12.60
2018-05-01T20:21:55.713Z,5.67
2018-05-01T20:24:24.032Z,6.67
2018-05-01T20:26:51.579Z,6.77
2018-05-01T20:29:19.177Z,10.97
2018-05-01T20:31:46.731Z,8.37
2018-05-01T20:34:14.311Z,7.13
2018-05-01T20:36:41.896Z,6.73
2018-05-01T20:39:09.458Z,7.70
2018-05-01T20:41:37.007Z,9.67
2018-05-01T20:44:04.609Z,14.63
2018-05-01T20:46:32.171Z,5.47
2018-05-01T20:49:00.529Z,8.90
2018-05-01T20:51:28.070Z,5.97
2018-05-01T20:53:55.646Z,7.07
2018-05-01T20:56:23.193Z,6.50
2018-05-01T20:58:50.781Z,9.10
2018-05-01T21:01:18.343Z,9.67
2018-05-01T21:03:45.987Z,9.80
2018-05-01T21:06:13.520Z,15.53
2018-05-01T21:08:41.819Z,7.67
2018-05-01T21:11:09.374Z,7.60
2018-05-01T21:13:36.931Z,9.07
2018-05-01T21:16:05.285Z,12.30
2018-05-01T21:18:33.738Z,8.33
2018-05-01T21:21:01.321Z,6.50
2018-05-01T21:23:28.895Z,9.27
2018-05-01T21:25:56.486Z,5.60
2018-05-01T21:28:24.813Z,5.70
2018-05-01T21:30:52.395Z,10.30
2018-05-01T21:33:19.973Z,7.87
2018-05-01T21:35:47.567Z,6.77
2018-05-01T21:38:15.882Z,4.90
2018-05-01T21:40:43.471Z,8.50
2018-05-01T21:43:11.086Z,6.00
2018-05-01T21:45:39.452Z,11.90
2018-05-01T21:48:07.785Z,6.60
2018-05-01T21:50:35.403Z,8.80
2018-05-01T21:53:02.953Z,6.30
2018-05-01T21:55:30.516Z,7.57
2018-05-01T21:57:58.094Z,11.80
2018-05-01T22:00:25.689Z,8.97
2018-05-01T22:02:53.271Z,7.70
2018-05-01T22:05:20.812Z,7.20
2018-05-01T22:07:48.388Z,6.07
2018-05-01T22:10:15.940Z,3.33
2018-05-01T22:12:44.274Z,12.90
2018-05-01T22:15:11.820Z,6.37
2018-05-01T22:17:39.397Z,4.87
2018-05-01T22:20:06.959Z,3.97
2018-05-01T22:22:34.550Z,2.97
2018-05-01T22:25:02.153Z,6.57
2018-05-01T22:27:29.740Z,4.80
2018-05-01T22:29:58.953Z,5.33
2018-05-01T22:32:26.580Z,3.53
2018-05-01T22:34:54.150Z,5.97
2018-05-01T22:37:22.498Z,4.60
2018-05-01T22:39:50.053Z,7.17
2018-05-01T22:42:17.631Z,2.90
2018-05-01T22:44:45.190Z,5.97
2018-05-01T22:47:12.732Z,2.27
2018-05-01T22:49:40.375Z,6.43
2018-05-01T22:52:07.999Z,3.53
2018-05-01T22:54:35.580Z,4.60
2018-05-01T22:57:03.923Z,5.37
2018-05-01T22:59:31.500Z,3.37
2018-05-01T23:01:59.577Z,3.33
2018-05-01T23:04:27.932Z,6.53
2018-05-01T23:06:55.515Z,7.13
2018-05-01T23:09:23.115Z,7.07
2018-05-01T23:11:51.149Z,5.23
2018-05-01T23:14:18.841Z,3.30
2018-05-01T23:16:46.849Z,4.37
2018-05-01T23:19:15.286Z,5.40
2018-05-01T23:21:42.877Z,11.00
2018-05-01T23:24:11.213Z,12.97
2018-05-01T23:26:38.791Z,2.43
2018-05-01T23:29:06.396Z,2.43
2018-05-01T23:31:34.710Z,11.00
2018-05-01T23:34:02.258Z,5.87
2018-05-01T23:36:29.869Z,12.73
2018-05-01T23:38:58.207Z,9.17
2018-05-01T23:41:25.835Z,2.93
2018-05-01T23:43:53.409Z,2.37
2018-05-01T23:46:20.986Z,2.60
2018-05-01T23:48:49.305Z,3.67
2018-05-01T23:51:16.901Z,6.17
2018-05-01T23:53:44.469Z,2.57
2018-05-01T23:56:12.587Z,7.30
2018-05-01T23:58:40.177Z,6.63
